Time;durP1;ratioP1;P1;durP2;ratioP2;P2;SDS_P1;SDS_P2;PMS_P1;PMS_P2;Temp;Humidity;BMP_temperature;BMP_pressure;BME280_temperature;BME280_humidity;BME280_pressure;Samples;Min_cycle;Max_cycle;Signal;HPM_P1;HPM_P2
2022/10/25 00:00:27;;;;;;;21.23;9.52;;;13.70;86.50;;;;;;4971779;28;20106;-79
2022/10/25 00:02:54;;;;;;;20.47;9.23;;;13.70;86.50;;;;;;4955662;28;20046;-79
2022/10/25 00:05:22;;;;;;;19.80;9.45;;;13.70;86.40;;;;;;4972789;28;20772;-79
2022/10/25 00:07:49;;;;;;;17.92;8.82;;;13.70;86.30;;;;;;4982311;28;20061;-79
2022/10/25 00:10:16;;;;;;;17.92;9.35;;;13.70;86.30;;;;;;4974605;28;20130;-79
2022/10/25 00:12:44;;;;;;;20.73;9.80;;;13.60;86.30;;;;;;4974651;28;20047;-79
2022/10/25 00:17:59;;;;;;;15.70;8.65;;;13.60;86.30;;;;;;4902911;28;21193;-79
2022/10/25 00:20:29;;;;;;;18.77;8.80;;;13.60;86.20;;;;;;4953118;28;20668;-79
2022/10/25 00:22:56;;;;;;;19.40;9.35;;;13.60;86.20;;;;;;4952141;28;20051;-79
2022/10/25 00:25:23;;;;;;;19.50;9.48;;;13.60;86.30;;;;;;4951827;28;20052;-79
2022/10/25 00:27:50;;;;;;;19.47;9.03;;;13.60;86.40;;;;;;4953295;28;20059;-79
2022/10/25 00:30:17;;;;;;;20.27;9.82;;;13.60;86.30;;;;;;4942196;28;20261;-79
2022/10/25 00:32:44;;;;;;;16.77;8.80;;;13.60;86.40;;;;;;4920146;28;20083;-79
2022/10/25 00:35:11;;;;;;;18.42;8.93;;;13.60;86.30;;;;;;4951473;28;20044;-79
2022/10/25 00:37:40;;;;;;;17.10;7.82;;;13.60;86.30;;;;;;4952414;28;20052;-79
2022/10/25 00:40:08;;;;;;;20.37;8.87;;;13.60;86.40;;;;;;4951249;28;20544;-79
2022/10/25 00:42:35;;;;;;;16.67;8.40;;;13.50;86.40;;;;;;4952024;28;20264;-79
2022/10/25 00:45:19;;;;;;;17.33;8.35;;;13.50;86.50;;;;;;4950092;28;20052;-79
2022/10/25 00:47:50;;;;;;;18.63;7.82;;;13.50;86.50;;;;;;4951334;28;20154;-80
2022/10/25 00:50:28;;;;;;;16.80;8.20;;;13.50;86.60;;;;;;4950359;28;20506;-79
2022/10/25 00:53:04;;;;;;;18.53;8.50;;;13.50;86.60;;;;;;4951826;28;20048;-79
2022/10/25 00:55:33;;;;;;;22.10;8.95;;;13.50;86.70;;;;;;4952855;28;20292;-79
2022/10/25 00:58:04;;;;;;;18.33;8.02;;;13.50;86.70;;;;;;4929280;29;21003;-79
2022/10/25 01:00:31;;;;;;;17.55;8.50;;;13.50;86.60;;;;;;4933479;29;20052;-79
2022/10/25 01:02:58;;;;;;;19.25;7.32;;;13.50;86.70;;;;;;4933578;29;20143;-80
2022/10/25 01:05:26;;;;;;;14.03;7.63;;;13.50;86.60;;;;;;4916093;29;20598;-79
2022/10/25 01:07:53;;;;;;;15.77;7.32;;;13.50;86.70;;;;;;4939504;28;20285;-79
2022/10/25 01:10:21;;;;;;;15.10;7.65;;;13.50;86.80;;;;;;4944944;28;20049;-79
2022/10/25 01:12:48;;;;;;;16.38;7.25;;;13.50;86.80;;;;;;4945175;28;20055;-80
2022/10/25 01:15:16;;;;;;;17.30;7.90;;;13.50;86.80;;;;;;4951245;28;20091;-80
2022/10/25 01:17:54;;;;;;;17.63;8.53;;;13.50;86.80;;;;;;4952658;28;20545;-79
2022/10/25 01:21:18;;;;;;;16.63;7.82;;;13.50;86.80;;;;;;4935289;28;20737;-79
2022/10/25 01:24:15;;;;;;;16.88;7.68;;;13.50;86.70;;;;;;4912317;28;20066;-80
2022/10/25 01:27:19;;;;;;;18.30;8.55;;;13.50;86.70;;;;;;4934838;28;20051;-79
2022/10/25 01:30:05;;;;;;;15.57;7.45;;;13.50;86.70;;;;;;4911210;28;20048;-79
2022/10/25 01:32:41;;;;;;;16.90;7.60;;;13.50;86.70;;;;;;4938060;28;20054;-79
2022/10/25 01:35:18;;;;;;;17.50;7.20;;;13.50;86.80;;;;;;4950846;28;20337;-79
2022/10/25 01:37:56;;;;;;;15.57;7.47;;;13.50;86.80;;;;;;4934930;28;20066;-79
2022/10/25 01:40:29;;;;;;;15.38;6.70;;;13.50;86.90;;;;;;4950345;28;20062;-79
2022/10/25 01:43:04;;;;;;;13.27;6.82;;;13.50;86.90;;;;;;4934327;28;20066;-80
2022/10/25 01:45:39;;;;;;;16.40;7.10;;;13.50;86.90;;;;;;4950585;28;20054;-79
2022/10/25 01:48:14;;;;;;;15.32;6.65;;;13.50;87.10;;;;;;4934542;28;20261;-79
2022/10/25 01:50:45;;;;;;;13.50;7.40;;;13.50;87.00;;;;;;4950198;28;20047;-79
2022/10/25 01:53:12;;;;;;;15.85;7.05;;;13.50;87.10;;;;;;4935116;28;20043;-79
2022/10/25 01:55:45;;;;;;;15.95;7.10;;;13.50;87.20;;;;;;4950714;28;20126;-79
2022/10/25 01:58:24;;;;;;;15.13;6.97;;;13.50;87.30;;;;;;4949706;28;20052;-79
2022/10/25 02:00:59;;;;;;;15.02;6.60;;;13.50;87.30;;;;;;4952534;28;20267;-79
2022/10/25 02:03:34;;;;;;;14.50;5.85;;;13.50;87.30;;;;;;4937965;28;20478;-80
2022/10/25 02:06:15;;;;;;;10.95;6.28;;;13.50;87.30;;;;;;4953974;28;20740;-79
2022/10/25 02:08:48;;;;;;;14.77;6.50;;;13.60;87.30;;;;;;4955329;28;20060;-79
2022/10/25 02:11:23;;;;;;;12.10;6.20;;;13.60;87.40;;;;;;4953744;28;20048;-79
2022/10/25 02:14:04;;;;;;;14.90;7.00;;;13.60;87.30;;;;;;4938124;28;20252;-79
2022/10/25 02:16:37;;;;;;;15.90;7.18;;;13.60;87.30;;;;;;4954179;28;20058;-79
2022/10/25 02:19:09;;;;;;;14.02;6.47;;;13.60;87.40;;;;;;4937622;28;20048;-79
2022/10/25 02:21:37;;;;;;;13.43;6.40;;;13.60;87.40;;;;;;4953674;28;20070;-80
2022/10/25 02:24:09;;;;;;;15.60;6.27;;;13.60;87.40;;;;;;4925752;29;20054;-79
2022/10/25 02:26:37;;;;;;;13.93;6.45;;;13.60;87.30;;;;;;4918541;29;20269;-79
2022/10/25 02:29:06;;;;;;;15.60;6.38;;;13.60;87.40;;;;;;4918038;29;20059;-79
2022/10/25 02:31:37;;;;;;;14.80;6.45;;;13.70;87.50;;;;;;4934371;29;20713;-79
2022/10/25 02:34:05;;;;;;;15.70;6.70;;;13.70;87.40;;;;;;4946100;28;20133;-79
2022/10/25 02:36:32;;;;;;;14.37;6.10;;;13.70;87.50;;;;;;4918205;29;20494;-79
2022/10/25 02:39:00;;;;;;;13.30;6.00;;;13.70;87.30;;;;;;4935778;29;20276;-79
2022/10/25 02:41:27;;;;;;;13.82;6.38;;;13.70;87.50;;;;;;4945737;28;20086;-79
2022/10/25 02:43:55;;;;;;;13.73;6.07;;;13.70;87.50;;;;;;4937566;28;20050;-79
2022/10/25 02:46:23;;;;;;;15.95;6.50;;;13.70;87.60;;;;;;4953334;28;20048;-79
2022/10/25 02:48:51;;;;;;;14.83;6.53;;;13.70;87.70;;;;;;4937212;28;20087;-79
2022/10/25 02:51:19;;;;;;;15.05;6.88;;;13.70;87.70;;;;;;4950641;28;20287;-79
2022/10/25 02:53:47;;;;;;;16.60;7.10;;;13.70;87.80;;;;;;4953329;28;20054;-79
2022/10/25 02:56:16;;;;;;;16.05;6.93;;;13.70;87.80;;;;;;4954840;28;20056;-80
2022/10/25 02:58:44;;;;;;;16.13;6.80;;;13.70;87.70;;;;;;4920713;29;20181;-79
2022/10/25 03:01:12;;;;;;;17.10;7.53;;;13.70;87.70;;;;;;4917766;29;20048;-79
2022/10/25 03:03:42;;;;;;;16.65;6.43;;;13.70;87.90;;;;;;4935584;29;20287;-79
2022/10/25 03:06:10;;;;;;;14.95;7.30;;;13.70;87.80;;;;;;4935415;29;20484;-79
2022/10/25 03:08:40;;;;;;;14.57;7.10;;;13.70;87.70;;;;;;4952247;28;20048;-79
2022/10/25 03:11:08;;;;;;;13.80;6.65;;;13.80;87.90;;;;;;4953354;28;20052;-79
2022/10/25 03:13:35;;;;;;;13.97;6.83;;;13.80;87.80;;;;;;4954461;28;20051;-79
2022/10/25 03:16:03;;;;;;;15.75;7.13;;;13.80;87.80;;;;;;4939475;28;20273;-79
2022/10/25 03:18:30;;;;;;;15.50;7.40;;;13.80;87.90;;;;;;4953553;28;20051;-79
2022/10/25 03:20:57;;;;;;;14.57;7.10;;;13.80;87.80;;;;;;4936807;28;20055;-79
2022/10/25 03:23:26;;;;;;;14.65;6.47;;;13.90;87.80;;;;;;4952755;28;20115;-79
2022/10/25 03:25:56;;;;;;;14.93;6.73;;;13.90;87.70;;;;;;4935071;28;20058;-79
2022/10/25 03:28:23;;;;;;;14.88;6.78;;;13.90;87.70;;;;;;4954175;28;20717;-79
2022/10/25 03:30:50;;;;;;;14.75;6.72;;;13.90;87.80;;;;;;4952363;28;20212;-79
2022/10/25 03:33:17;;;;;;;13.73;6.15;;;13.90;87.80;;;;;;4939576;28;20082;-79
2022/10/25 03:35:44;;;;;;;16.05;6.57;;;13.90;87.60;;;;;;4917852;29;20144;-79
2022/10/25 03:38:11;;;;;;;13.63;5.80;;;13.90;87.60;;;;;;4917591;29;20055;-79
2022/10/25 03:40:38;;;;;;;14.10;6.60;;;13.90;87.50;;;;;;4917271;29;20280;-79
2022/10/25 03:43:07;;;;;;;12.18;6.13;;;13.90;87.50;;;;;;4935431;28;20055;-79
2022/10/25 03:45:34;;;;;;;13.68;6.70;;;13.80;87.50;;;;;;4952540;28;20056;-80
2022/10/25 03:48:01;;;;;;;14.05;6.72;;;13.80;87.40;;;;;;4952666;28;20127;-79
2022/10/25 03:50:28;;;;;;;13.50;6.30;;;13.80;87.30;;;;;;4936106;28;20059;-79
2022/10/25 03:52:55;;;;;;;13.77;6.65;;;13.80;87.40;;;;;;4952369;28;20327;-79
2022/10/25 03:55:22;;;;;;;17.60;7.10;;;13.80;87.40;;;;;;4936542;28;20560;-80
2022/10/25 03:57:49;;;;;;;16.55;6.95;;;13.80;87.40;;;;;;4952293;28;20109;-79
2022/10/25 04:00:18;;;;;;;18.33;7.38;;;13.80;87.30;;;;;;4934503;28;20060;-79
2022/10/25 04:02:45;;;;;;;15.77;7.17;;;13.80;87.40;;;;;;4952265;28;20507;-79
2022/10/25 04:05:12;;;;;;;16.83;7.43;;;13.80;87.50;;;;;;4952387;28;20743;-79
2022/10/25 04:07:39;;;;;;;14.63;7.30;;;13.80;87.40;;;;;;4951998;28;20139;-79
2022/10/25 04:10:07;;;;;;;15.43;6.85;;;13.80;87.50;;;;;;4935541;28;20058;-79
2022/10/25 04:12:34;;;;;;;20.65;8.18;;;13.80;87.50;;;;;;4952218;28;20126;-79
2022/10/25 04:15:01;;;;;;;17.87;7.57;;;13.80;87.80;;;;;;4953723;28;20056;-79
2022/10/25 04:17:29;;;;;;;17.23;7.95;;;13.90;87.70;;;;;;4950828;28;20260;-79
2022/10/25 04:19:56;;;;;;;18.73;7.68;;;13.90;87.80;;;;;;4935742;28;20140;-79
2022/10/25 04:22:23;;;;;;;18.85;8.43;;;13.90;87.80;;;;;;4935452;28;20052;-79
2022/10/25 04:24:50;;;;;;;19.58;7.75;;;13.90;87.90;;;;;;4935803;28;20082;-79
2022/10/25 04:27:17;;;;;;;19.63;8.63;;;13.90;87.90;;;;;;4916935;29;20802;-79
2022/10/25 04:30:15;;;;;;;19.02;7.70;;;13.90;87.90;;;;;;4935795;29;20316;-79
2022/10/25 04:32:44;;;;;;;20.98;8.05;;;13.90;87.80;;;;;;4919570;28;20051;-79
2022/10/25 04:35:11;;;;;;;16.45;7.30;;;13.90;88.00;;;;;;4949024;28;20063;-79
2022/10/25 04:37:38;;;;;;;16.52;7.03;;;13.90;88.00;;;;;;4934057;29;20491;-79
2022/10/25 04:40:06;;;;;;;18.27;6.97;;;13.90;88.00;;;;;;4948004;28;20050;-79
2022/10/25 04:42:34;;;;;;;20.63;7.05;;;13.90;88.00;;;;;;4951623;28;20266;-79
2022/10/25 04:45:01;;;;;;;16.15;7.47;;;13.90;88.00;;;;;;4953078;28;20054;-79
2022/10/25 04:47:31;;;;;;;15.88;6.50;;;13.90;88.00;;;;;;4951318;28;20529;-79
2022/10/25 04:49:59;;;;;;;16.10;6.00;;;13.90;87.90;;;;;;4934154;28;20052;-79
2022/10/25 04:52:28;;;;;;;17.20;6.73;;;13.90;88.10;;;;;;4951461;28;20055;-79
2022/10/25 04:54:55;;;;;;;17.40;7.35;;;13.90;88.10;;;;;;4935873;28;20864;-79
2022/10/25 04:57:22;;;;;;;17.13;7.20;;;13.90;88.20;;;;;;4951280;28;20051;-79
2022/10/25 04:59:49;;;;;;;14.75;6.15;;;13.90;88.10;;;;;;4929318;29;20066;-79
2022/10/25 05:02:16;;;;;;;17.35;7.35;;;13.90;88.00;;;;;;4916173;29;20059;-79
2022/10/25 05:04:43;;;;;;;16.80;6.30;;;13.90;88.00;;;;;;4916669;29;20566;-79
2022/10/25 05:07:11;;;;;;;14.02;6.18;;;13.90;87.90;;;;;;4934817;28;20288;-79
2022/10/25 05:09:38;;;;;;;12.23;6.07;;;13.90;87.90;;;;;;4934789;28;20052;-79
2022/10/25 05:12:06;;;;;;;18.05;6.32;;;13.90;87.80;;;;;;4951395;28;20052;-79
2022/10/25 05:14:33;;;;;;;14.75;5.85;;;13.90;87.70;;;;;;4951118;28;20056;-79
2022/10/25 05:17:00;;;;;;;16.20;5.30;;;13.90;87.50;;;;;;4950619;28;20134;-79
2022/10/25 05:19:27;;;;;;;12.13;5.68;;;13.80;87.50;;;;;;4920069;29;20391;-79
2022/10/25 05:21:54;;;;;;;12.10;5.65;;;13.80;87.50;;;;;;4916003;29;20475;-79
2022/10/25 05:24:23;;;;;;;12.55;5.32;;;13.80;87.40;;;;;;4915706;28;20056;-79
2022/10/25 05:26:50;;;;;;;11.18;5.00;;;13.80;87.30;;;;;;4951280;28;20048;-79
2022/10/25 05:29:17;;;;;;;13.33;5.33;;;13.80;87.20;;;;;;4934857;28;20139;-79
2022/10/25 05:31:44;;;;;;;11.85;5.90;;;13.70;87.20;;;;;;4938114;28;20292;-79
2022/10/25 05:34:11;;;;;;;11.50;4.70;;;13.70;87.20;;;;;;4931642;29;20055;-79
2022/10/25 05:36:38;;;;;;;13.32;5.43;;;13.70;87.00;;;;;;4932573;29;20063;-79
2022/10/25 05:39:05;;;;;;;14.13;5.05;;;13.70;86.90;;;;;;4915281;29;20051;-79
2022/10/25 05:41:33;;;;;;;14.60;4.77;;;13.70;86.90;;;;;;4932281;29;20052;-78
2022/10/25 05:44:03;;;;;;;17.73;4.80;;;13.70;86.90;;;;;;4938390;28;20265;-78
2022/10/25 05:46:31;;;;;;;11.70;4.90;;;13.70;86.90;;;;;;4928235;29;20052;-78
2022/10/25 05:48:59;;;;;;;14.50;5.15;;;13.60;86.90;;;;;;4913102;29;20064;-78
2022/10/25 05:51:27;;;;;;;13.18;4.80;;;13.60;87.00;;;;;;4931055;28;20893;-79
2022/10/25 05:53:56;;;;;;;11.13;5.17;;;13.60;86.90;;;;;;4903554;29;20140;-79
2022/10/25 05:56:26;;;;;;;13.57;5.20;;;13.60;87.00;;;;;;4915029;29;20256;-79
2022/10/25 05:58:56;;;;;;;13.13;5.65;;;13.60;87.00;;;;;;4930249;29;20058;-78
2022/10/25 06:01:24;;;;;;;17.70;5.28;;;13.60;87.10;;;;;;4929877;28;20062;-78
2022/10/25 06:03:53;;;;;;;15.63;5.10;;;13.60;87.10;;;;;;4931872;29;20060;-78
2022/10/25 06:06:21;;;;;;;12.93;5.47;;;13.60;87.20;;;;;;4931241;29;20048;-78
2022/10/25 06:08:48;;;;;;;11.35;4.53;;;13.60;87.20;;;;;;4929336;29;20295;-78
2022/10/25 06:11:17;;;;;;;14.55;4.72;;;13.60;87.20;;;;;;4928459;28;20040;-78
2022/10/25 06:13:45;;;;;;;14.82;5.13;;;13.60;87.30;;;;;;4913565;29;20933;-80
2022/10/25 06:16:15;;;;;;;16.17;5.00;;;13.60;87.50;;;;;;4912386;29;20156;-79
2022/10/25 06:18:43;;;;;;;10.50;4.50;;;13.60;87.50;;;;;;4934517;28;20060;-81
2022/10/25 06:21:11;;;;;;;13.80;5.25;;;13.60;87.60;;;;;;4914003;29;20332;-80
2022/10/25 06:23:39;;;;;;;16.33;5.30;;;13.60;87.60;;;;;;4914321;29;20053;-79
2022/10/25 06:26:08;;;;;;;15.02;5.00;;;13.60;87.60;;;;;;4908464;29;20136;-77
2022/10/25 06:28:36;;;;;;;14.07;5.35;;;13.60;87.70;;;;;;4929414;28;20568;-77
2022/10/25 06:31:04;;;;;;;14.80;5.63;;;13.50;87.70;;;;;;4928529;29;20052;-77
2022/10/25 06:33:33;;;;;;;15.38;5.40;;;13.60;87.70;;;;;;4929171;29;20261;-76
2022/10/25 06:36:02;;;;;;;14.15;5.15;;;13.50;87.80;;;;;;4921368;28;20095;-77
2022/10/25 06:38:30;;;;;;;16.02;5.88;;;13.50;87.80;;;;;;4948145;28;20095;-76
2022/10/25 06:41:02;;;;;;;15.77;5.15;;;13.50;87.90;;;;;;4948156;28;20052;-77
2022/10/25 06:43:29;;;;;;;15.70;5.33;;;13.50;87.90;;;;;;4933342;28;20087;-77
2022/10/25 06:45:56;;;;;;;15.95;5.43;;;13.50;87.90;;;;;;4937087;28;20260;-77
2022/10/25 06:48:24;;;;;;;20.08;5.55;;;13.50;88.00;;;;;;4935164;29;20063;-79
2022/10/25 06:51:02;;;;;;;18.75;6.00;;;13.50;88.00;;;;;;4917489;29;20099;-78
2022/10/25 06:53:29;;;;;;;18.92;5.97;;;13.50;88.10;;;;;;4936581;28;20060;-78
2022/10/25 06:56:00;;;;;;;21.40;6.07;;;13.50;88.20;;;;;;4917180;29;20055;-78
2022/10/25 06:58:30;;;;;;;17.08;4.70;;;13.50;88.20;;;;;;4917704;29;20811;-78
2022/10/25 07:01:01;;;;;;;15.52;5.70;;;13.50;88.20;;;;;;4921130;29;20055;-78
2022/10/25 07:03:30;;;;;;;14.45;5.68;;;13.50;88.30;;;;;;4930162;28;20613;-78
2022/10/25 07:05:59;;;;;;;21.10;5.35;;;13.50;88.30;;;;;;4951510;28;20059;-78
2022/10/25 07:08:28;;;;;;;17.90;5.70;;;13.50;88.20;;;;;;4952172;28;20063;-77
2022/10/25 07:10:55;;;;;;;15.93;5.43;;;13.50;88.30;;;;;;4934833;28;20262;-78
2022/10/25 07:13:23;;;;;;;14.15;5.25;;;13.50;88.40;;;;;;4945143;28;20064;-78
2022/10/25 07:15:49;;;;;;;17.38;5.47;;;13.50;88.30;;;;;;4945821;28;20052;-78
2022/10/25 07:18:17;;;;;;;14.40;5.28;;;13.50;88.30;;;;;;4939636;28;20052;-78
2022/10/25 07:20:47;;;;;;;18.00;5.90;;;13.50;88.30;;;;;;4917355;29;20048;-78
2022/10/25 07:23:15;;;;;;;17.05;5.85;;;13.50;88.40;;;;;;4917725;29;20821;-78
2022/10/25 07:25:43;;;;;;;20.58;6.55;;;13.50;88.40;;;;;;4936664;29;20137;-78
2022/10/25 07:28:12;;;;;;;16.85;6.07;;;13.50;88.60;;;;;;4918042;29;20055;-78
2022/10/25 07:30:44;;;;;;;13.90;5.80;;;13.50;88.50;;;;;;4917098;29;20830;-78
2022/10/25 07:33:12;;;;;;;16.67;6.03;;;13.50;88.70;;;;;;4917491;29;20056;-78
2022/10/25 07:35:39;;;;;;;18.40;5.90;;;13.60;88.70;;;;;;4917747;29;20268;-78
2022/10/25 07:38:06;;;;;;;18.30;6.85;;;13.60;88.70;;;;;;4933195;29;20056;-77
2022/10/25 07:40:33;;;;;;;18.15;6.60;;;13.60;88.90;;;;;;4917276;29;20528;-78
2022/10/25 07:43:01;;;;;;;16.90;6.88;;;13.60;88.80;;;;;;4934327;29;20171;-78
2022/10/25 07:45:28;;;;;;;18.07;6.50;;;13.60;88.80;;;;;;4917488;29;20052;-82
2022/10/25 07:47:55;;;;;;;15.35;6.70;;;13.70;88.70;;;;;;4916212;29;20285;-73
2022/10/25 07:50:22;;;;;;;20.15;6.70;;;13.70;88.80;;;;;;4916067;29;20060;-76
2022/10/25 07:52:49;;;;;;;15.30;6.55;;;13.70;88.70;;;;;;4917135;29;20134;-76
2022/10/25 07:55:17;;;;;;;14.27;5.32;;;13.70;88.70;;;;;;4933205;29;20054;-76
2022/10/25 07:57:44;;;;;;;21.23;7.37;;;13.70;88.60;;;;;;4914658;29;20052;-75
2022/10/25 08:00:13;;;;;;;19.05;6.72;;;13.70;88.70;;;;;;4915147;29;20245;-77
2022/10/25 08:02:41;;;;;;;15.68;5.72;;;13.70;88.60;;;;;;4932383;29;20056;-77
2022/10/25 08:05:09;;;;;;;20.05;8.60;;;13.80;88.70;;;;;;4914860;29;20053;-76
2022/10/25 08:07:36;;;;;;;19.42;7.38;;;13.80;88.80;;;;;;4930129;29;20115;-76
2022/10/25 08:10:04;;;;;;;16.33;7.33;;;13.80;88.70;;;;;;4915502;29;20949;-77
2022/10/25 08:12:31;;;;;;;22.00;8.57;;;13.90;88.70;;;;;;4933713;29;20351;-77
2022/10/25 08:14:58;;;;;;;17.98;7.63;;;13.90;88.60;;;;;;4916645;29;20048;-77
2022/10/25 08:17:26;;;;;;;19.95;7.13;;;13.90;88.50;;;;;;4916434;29;20060;-77
2022/10/25 08:19:53;;;;;;;17.90;7.53;;;13.90;88.60;;;;;;4933517;29;20058;-77
2022/10/25 08:22:20;;;;;;;17.37;6.93;;;13.90;88.60;;;;;;4916370;29;20131;-77
2022/10/25 08:24:47;;;;;;;17.83;7.10;;;13.90;88.50;;;;;;4933810;29;20261;-77
2022/10/25 08:27:14;;;;;;;16.98;7.07;;;14.00;88.60;;;;;;4915922;29;20062;-77
2022/10/25 08:29:42;;;;;;;20.02;7.38;;;13.90;88.40;;;;;;4915649;29;20075;-76
2022/10/25 08:32:09;;;;;;;17.63;6.70;;;14.00;88.50;;;;;;4933378;29;20083;-76
2022/10/25 08:34:37;;;;;;;19.57;7.73;;;14.00;88.50;;;;;;4932835;29;20052;-76
2022/10/25 08:37:04;;;;;;;17.63;7.50;;;14.00;88.50;;;;;;4915748;29;20722;-76
2022/10/25 08:39:32;;;;;;;21.52;7.75;;;14.00;88.40;;;;;;4932643;29;20143;-76
2022/10/25 08:42:27;;;;;;;15.98;7.45;;;14.00;88.40;;;;;;4916957;29;20572;-76
2022/10/25 08:45:00;;;;;;;16.48;6.72;;;14.00;88.20;;;;;;5004105;23;20059;-76
2022/10/25 08:47:32;;;;;;;17.60;6.93;;;14.10;88.10;;;;;;4971795;28;20055;-76
2022/10/25 08:50:06;;;;;;;15.27;6.65;;;14.10;88.10;;;;;;4972716;28;20286;-74
2022/10/25 08:52:39;;;;;;;16.08;6.90;;;14.10;88.10;;;;;;4959385;28;20130;-76
2022/10/25 08:55:15;;;;;;;19.50;7.05;;;14.10;88.10;;;;;;4990604;28;20058;-75
2022/10/25 08:57:45;;;;;;;15.85;6.05;;;14.10;88.10;;;;;;4973516;28;20082;-76
2022/10/25 09:00:18;;;;;;;15.53;6.13;;;14.10;88.00;;;;;;4956659;28;20114;-76
2022/10/25 09:02:50;;;;;;;21.15;7.22;;;14.20;88.00;;;;;;4990137;28;20282;-77
2022/10/25 09:05:29;;;;;;;13.80;5.50;;;14.20;87.90;;;;;;4973726;28;20477;-76
2022/10/25 09:08:07;;;;;;;13.43;6.25;;;14.20;87.60;;;;;;4973429;28;20050;-76
2022/10/25 09:10:47;;;;;;;14.65;5.95;;;14.20;87.50;;;;;;4972011;28;20054;-76
2022/10/25 09:13:25;;;;;;;14.37;5.83;;;14.30;87.10;;;;;;4988468;28;20061;-76
2022/10/25 09:16:01;;;;;;;14.05;6.43;;;14.30;87.10;;;;;;4972862;28;21465;-76
2022/10/25 09:18:37;;;;;;;15.68;6.20;;;14.30;87.20;;;;;;4985097;28;20098;-76
2022/10/25 09:21:11;;;;;;;9.13;3.47;;;14.30;87.00;;;;;;4989822;28;20066;-76
2022/10/25 09:23:42;;;;;;;12.68;5.13;;;14.40;86.40;;;;;;4989004;28;20120;-76
2022/10/25 09:26:15;;;;;;;12.87;3.93;;;14.40;86.40;;;;;;4971285;28;20845;-76
2022/10/25 09:28:51;;;;;;;14.18;5.32;;;14.40;86.20;;;;;;4970900;28;20275;-75
2022/10/25 09:31:23;;;;;;;15.75;5.40;;;14.40;86.30;;;;;;4969728;28;20051;-75
2022/10/25 09:33:54;;;;;;;13.35;5.07;;;14.40;86.20;;;;;;4989673;28;20046;-77
2022/10/25 09:36:23;;;;;;;10.25;4.20;;;14.50;86.00;;;;;;4988509;28;20062;-76
2022/10/25 09:38:53;;;;;;;12.60;4.20;;;14.50;86.00;;;;;;4988401;28;20153;-76
2022/10/25 09:41:26;;;;;;;13.20;5.25;;;14.50;86.10;;;;;;4958487;28;20385;-76
2022/10/25 09:43:57;;;;;;;11.85;4.85;;;14.50;86.00;;;;;;4994174;28;20054;-76
2022/10/25 09:46:32;;;;;;;14.15;5.53;;;14.60;85.70;;;;;;4989953;28;20058;-76
2022/10/25 09:49:05;;;;;;;13.93;4.65;;;14.70;85.40;;;;;;4988022;28;20149;-73
2022/10/25 09:51:37;;;;;;;14.90;5.23;;;14.60;85.30;;;;;;4989678;28;20063;-77
2022/10/25 09:54:16;;;;;;;14.20;4.30;;;14.70;85.00;;;;;;4988096;28;20279;-74
2022/10/25 09:56:43;;;;;;;12.75;5.10;;;14.70;85.20;;;;;;4965783;28;20444;-76
2022/10/25 09:59:14;;;;;;;13.60;4.95;;;14.70;85.10;;;;;;4969902;28;20430;-76
2022/10/25 10:01:41;;;;;;;11.07;3.78;;;14.70;84.90;;;;;;4962611;28;20054;-76
2022/10/25 10:04:25;;;;;;;9.23;3.83;;;14.80;84.50;;;;;;4987698;28;20054;-76
2022/10/25 10:06:56;;;;;;;11.23;3.92;;;14.80;84.30;;;;;;4964606;28;20295;-76
2022/10/25 10:09:25;;;;;;;12.40;4.40;;;14.80;84.40;;;;;;4966453;28;20051;-76
2022/10/25 10:11:53;;;;;;;12.50;4.20;;;14.80;84.30;;;;;;4989639;28;20142;-76
2022/10/25 10:14:26;;;;;;;11.73;4.00;;;14.80;84.20;;;;;;4971905;28;20057;-75
2022/10/25 10:16:56;;;;;;;9.13;3.87;;;14.80;84.40;;;;;;4971099;28;20075;-76
2022/10/25 10:19:24;;;;;;;11.73;3.65;;;14.80;84.20;;;;;;4984517;28;20271;-76
2022/10/25 10:21:55;;;;;;;13.63;3.65;;;14.80;84.10;;;;;;4974430;28;20126;-75
2022/10/25 10:24:26;;;;;;;11.25;3.42;;;14.80;83.90;;;;;;4968130;28;20059;-74
2022/10/25 10:26:56;;;;;;;9.73;3.35;;;14.80;83.80;;;;;;4993187;28;20081;-76
2022/10/25 10:29:24;;;;;;;8.90;2.60;;;14.90;83.70;;;;;;4974127;28;20074;-74
2022/10/25 10:31:54;;;;;;;11.05;3.53;;;14.90;83.70;;;;;;4989600;28;20262;-74
2022/10/25 10:34:25;;;;;;;9.13;3.63;;;14.90;83.90;;;;;;4990948;28;20046;-74
2022/10/25 10:37:14;;;;;;;11.20;3.47;;;14.90;83.90;;;;;;4992042;28;20059;-74
2022/10/25 10:39:56;;;;;;;9.10;3.35;;;14.90;83.50;;;;;;4986790;28;20062;-77
2022/10/25 10:42:33;;;;;;;10.77;3.93;;;14.90;83.50;;;;;;4969549;28;20051;-74
2022/10/25 10:45:15;;;;;;;10.57;3.60;;;14.90;83.30;;;;;;4990622;28;20273;-75
2022/10/25 10:47:44;;;;;;;10.32;2.83;;;14.90;83.20;;;;;;4973198;28;20051;-75
2022/10/25 10:50:21;;;;;;;9.55;3.60;;;15.00;83.20;;;;;;4972969;28;20051;-76
2022/10/25 10:52:56;;;;;;;8.80;2.40;;;14.90;83.30;;;;;;4973293;28;20058;-75
2022/10/25 10:55:28;;;;;;;6.97;2.27;;;15.00;82.80;;;;;;4991750;28;20123;-75
2022/10/25 10:57:57;;;;;;;8.88;3.13;;;15.00;82.00;;;;;;4975040;28;20388;-75
2022/10/25 11:00:26;;;;;;;9.13;3.22;;;15.00;82.30;;;;;;4972417;28;20050;-75
2022/10/25 11:02:53;;;;;;;9.77;3.70;;;15.00;82.60;;;;;;4974296;28;20051;-73
2022/10/25 11:05:23;;;;;;;10.27;3.72;;;15.00;82.20;;;;;;4974035;28;20043;-74
2022/10/25 11:07:57;;;;;;;8.13;3.77;;;15.00;82.00;;;;;;4991212;28;20063;-74
2022/10/25 11:10:28;;;;;;;10.15;3.50;;;15.00;81.60;;;;;;4991406;28;20629;-75
2022/10/25 11:13:10;;;;;;;9.55;3.75;;;15.00;82.10;;;;;;4974996;28;20053;-75
2022/10/25 11:16:00;;;;;;;7.57;2.40;;;15.00;82.30;;;;;;4990182;28;20081;-76
2022/10/25 11:18:35;;;;;;;9.90;3.50;;;15.00;82.50;;;;;;4970409;28;20047;-76
2022/10/25 11:21:09;;;;;;;12.03;3.70;;;15.00;82.70;;;;;;4974665;28;20058;-76
2022/10/25 11:23:49;;;;;;;7.97;2.65;;;15.00;82.90;;;;;;4991201;28;20281;-76
2022/10/25 11:26:26;;;;;;;9.02;3.50;;;15.10;83.00;;;;;;4990713;28;20158;-75
2022/10/25 11:29:03;;;;;;;11.38;3.50;;;15.10;83.10;;;;;;4990321;28;20062;-76
2022/10/25 11:31:41;;;;;;;8.75;2.78;;;15.20;82.60;;;;;;4991834;28;20057;-75
2022/10/25 11:34:31;;;;;;;6.77;2.57;;;15.20;81.80;;;;;;4991581;28;20059;-75
2022/10/25 11:37:06;;;;;;;11.98;3.55;;;15.30;81.40;;;;;;4972800;28;20656;-75
2022/10/25 11:39:44;;;;;;;10.75;3.40;;;15.30;81.20;;;;;;4990229;28;20142;-75
2022/10/25 11:42:24;;;;;;;12.45;3.42;;;15.40;80.70;;;;;;4972693;28;20616;-76
2022/10/25 11:45:18;;;;;;;9.35;3.45;;;15.40;80.70;;;;;;4972389;28;20078;-75
2022/10/25 11:47:57;;;;;;;9.30;2.60;;;15.40;80.70;;;;;;4980191;28;20063;-75
2022/10/25 11:50:34;;;;;;;10.50;2.97;;;15.40;80.60;;;;;;4972720;28;20346;-75
2022/10/25 11:53:23;;;;;;;11.88;3.08;;;15.40;80.80;;;;;;4990227;28;20134;-76
2022/10/25 11:55:56;;;;;;;9.25;2.78;;;15.50;80.60;;;;;;4970414;28;20051;-76
2022/10/25 11:58:32;;;;;;;6.95;2.55;;;15.50;79.90;;;;;;4988197;28;20410;-76
2022/10/25 12:01:06;;;;;;;10.07;3.03;;;15.60;79.30;;;;;;4973839;28;20043;-75
2022/10/25 12:04:19;;;;;;;7.07;2.00;;;15.60;79.40;;;;;;4973940;28;20277;-75
2022/10/25 12:06:52;;;;;;;7.45;2.60;;;15.60;79.20;;;;;;4989776;28;20061;-75
2022/10/25 12:09:29;;;;;;;10.02;2.95;;;15.60;79.50;;;;;;4971250;28;20051;-76
2022/10/25 12:12:01;;;;;;;9.88;3.05;;;15.60;79.50;;;;;;4971337;28;20055;-75
2022/10/25 12:14:32;;;;;;;10.07;2.90;;;15.60;79.00;;;;;;4989824;28;20473;-74
2022/10/25 12:17:02;;;;;;;7.97;2.40;;;15.60;78.70;;;;;;4973082;28;20730;-75
2022/10/25 12:19:32;;;;;;;11.35;2.72;;;15.60;78.40;;;;;;4990623;28;20129;-74
2022/10/25 12:22:01;;;;;;;7.45;2.55;;;15.60;78.30;;;;;;4990097;28;20676;-78
2022/10/25 12:24:35;;;;;;;9.02;2.70;;;15.60;77.90;;;;;;4989435;28;20505;-76
2022/10/25 12:27:04;;;;;;;8.87;2.80;;;15.70;77.60;;;;;;4972273;28;20064;-76
2022/10/25 12:29:35;;;;;;;7.53;2.05;;;15.70;77.80;;;;;;4971102;28;20740;-75
2022/10/25 12:32:09;;;;;;;7.63;2.47;;;15.70;77.50;;;;;;4973502;28;20525;-74
2022/10/25 12:34:42;;;;;;;8.48;2.53;;;15.70;77.40;;;;;;4991326;28;20129;-76
2022/10/25 12:37:14;;;;;;;7.97;2.55;;;15.80;77.60;;;;;;4991013;28;20532;-76
2022/10/25 12:39:42;;;;;;;10.13;2.53;;;15.80;77.80;;;;;;4990815;28;20381;-75
2022/10/25 12:42:16;;;;;;;9.05;3.03;;;15.80;78.10;;;;;;4973445;28;20287;-76
2022/10/25 12:45:12;;;;;;;8.93;2.55;;;15.80;78.30;;;;;;4971717;28;20117;-76
2022/10/25 12:47:49;;;;;;;7.60;2.45;;;15.80;78.30;;;;;;4989234;28;20061;-76
2022/10/25 12:50:38;;;;;;;7.47;2.38;;;15.80;77.90;;;;;;4972850;28;20110;-76
2022/10/25 12:53:41;;;;;;;7.83;2.37;;;15.80;77.90;;;;;;4989449;28;20067;-76
2022/10/25 12:56:23;;;;;;;4.20;1.20;;;15.80;78.20;;;;;;4945703;28;20330;-75
2022/10/25 12:59:04;;;;;;;8.52;2.33;;;15.80;78.10;;;;;;4971226;28;20358;-76
2022/10/25 13:01:48;;;;;;;8.73;2.30;;;15.80;78.10;;;;;;4971846;28;20042;-76